Northfield, Illinois
Current Conditions -  °F | °C
As of 8:52 AM on Saturday 01 Nov 2014 (Local Time) from KPWK Reporting Station
Overcast Overcast  
Wind Chill: 33°   Ceiling: 3200
Heat Index: 38°   Visibility: 10mi
Dew Point: 26°   Wind: 6mph
Humidity: 62%   Direction: 340°NNW
Pressure: 30.46"   Gusts: NA
Location:  42.1029°N, 87.7571°W
Report Text: KPWK 011352Z 34005KT 10SM OVC032 03/M03 A3046 RMK AO2 SLP319 T00331033
Loading
Personal Weather Stations






























Interactive Weather Map
Tropical Storm Tracking
New forecast layout! Learn more

10-Day Weather Forecast

Advertisements
Track Severe Weather on mobile